sensor_id;sensor_type;location;lat;lon;timestamp;P1;durP1;ratioP1;P2;durP2;ratioP2
69369;SDS011;56530;42.640;23.372;2023-12-22T00:01:11;16.13;;;14.30;;
69369;SDS011;56530;42.640;23.372;2023-12-22T00:03:37;16.53;;;14.17;;
69369;SDS011;56530;42.640;23.372;2023-12-22T00:06:02;20.30;;;16.08;;
69369;SDS011;56530;42.640;23.372;2023-12-22T00:08:28;19.43;;;16.87;;
69369;SDS011;56530;42.640;23.372;2023-12-22T00:10:53;19.07;;;17.07;;
69369;SDS011;56530;42.640;23.372;2023-12-22T00:13:18;21.17;;;18.27;;
69369;SDS011;56530;42.640;23.372;2023-12-22T00:15:44;20.05;;;17.45;;
69369;SDS011;56530;42.640;23.372;2023-12-22T00:18:09;19.70;;;17.33;;
69369;SDS011;56530;42.640;23.372;2023-12-22T00:20:35;18.73;;;16.73;;
69369;SDS011;56530;42.640;23.372;2023-12-22T00:23:00;19.30;;;17.33;;
69369;SDS011;56530;42.640;23.372;2023-12-22T00:25:26;18.65;;;16.67;;
69369;SDS011;56530;42.640;23.372;2023-12-22T00:27:51;19.53;;;17.37;;
69369;SDS011;56530;42.640;23.372;2023-12-22T00:30:16;19.33;;;17.25;;
69369;SDS011;56530;42.640;23.372;2023-12-22T00:32:42;17.67;;;15.87;;
69369;SDS011;56530;42.640;23.372;2023-12-22T00:35:08;17.45;;;15.57;;
69369;SDS011;56530;42.640;23.372;2023-12-22T00:37:33;17.10;;;15.30;;
69369;SDS011;56530;42.640;23.372;2023-12-22T00:39:58;16.77;;;14.73;;
69369;SDS011;56530;42.640;23.372;2023-12-22T00:42:24;18.33;;;16.33;;
69369;SDS011;56530;42.640;23.372;2023-12-22T00:44:50;17.60;;;14.45;;
69369;SDS011;56530;42.640;23.372;2023-12-22T00:47:16;17.27;;;14.97;;
69369;SDS011;56530;42.640;23.372;2023-12-22T00:49:41;15.80;;;13.70;;
69369;SDS011;56530;42.640;23.372;2023-12-22T00:52:06;16.43;;;14.67;;
69369;SDS011;56530;42.640;23.372;2023-12-22T00:54:32;15.53;;;13.33;;
69369;SDS011;56530;42.640;23.372;2023-12-22T00:56:57;15.77;;;14.13;;
69369;SDS011;56530;42.640;23.372;2023-12-22T00:59:23;16.67;;;13.40;;
69369;SDS011;56530;42.640;23.372;2023-12-22T01:01:49;16.87;;;14.73;;
69369;SDS011;56530;42.640;23.372;2023-12-22T01:04:14;16.63;;;13.10;;
69369;SDS011;56530;42.640;23.372;2023-12-22T01:06:40;17.00;;;14.30;;
69369;SDS011;56530;42.640;23.372;2023-12-22T01:09:05;18.33;;;15.10;;
69369;SDS011;56530;42.640;23.372;2023-12-22T01:11:31;16.77;;;14.17;;
69369;SDS011;56530;42.640;23.372;2023-12-22T01:13:56;16.60;;;14.90;;
69369;SDS011;56530;42.640;23.372;2023-12-22T01:16:22;16.83;;;13.27;;
69369;SDS011;56530;42.640;23.372;2023-12-22T01:18:48;15.33;;;13.40;;
69369;SDS011;56530;42.640;23.372;2023-12-22T01:21:14;16.37;;;14.67;;
69369;SDS011;56530;42.640;23.372;2023-12-22T01:23:39;16.73;;;14.73;;
69369;SDS011;56530;42.640;23.372;2023-12-22T01:26:05;18.03;;;14.43;;
69369;SDS011;56530;42.640;23.372;2023-12-22T01:28:30;16.97;;;14.97;;
69369;SDS011;56530;42.640;23.372;2023-12-22T01:30:55;18.37;;;14.63;;
69369;SDS011;56530;42.640;23.372;2023-12-22T01:33:21;18.73;;;14.43;;
69369;SDS011;56530;42.640;23.372;2023-12-22T01:35:46;16.23;;;14.60;;
69369;SDS011;56530;42.640;23.372;2023-12-22T01:38:11;16.17;;;14.07;;
69369;SDS011;56530;42.640;23.372;2023-12-22T01:40:37;20.07;;;15.03;;
69369;SDS011;56530;42.640;23.372;2023-12-22T01:43:03;18.33;;;14.40;;
69369;SDS011;56530;42.640;23.372;2023-12-22T01:45:28;19.20;;;14.23;;
69369;SDS011;56530;42.640;23.372;2023-12-22T01:47:53;16.10;;;13.57;;
69369;SDS011;56530;42.640;23.372;2023-12-22T01:50:19;19.43;;;13.97;;
69369;SDS011;56530;42.640;23.372;2023-12-22T01:52:45;16.43;;;13.43;;
69369;SDS011;56530;42.640;23.372;2023-12-22T01:55:11;17.13;;;14.10;;
69369;SDS011;56530;42.640;23.372;2023-12-22T01:57:37;17.98;;;14.10;;
69369;SDS011;56530;42.640;23.372;2023-12-22T02:00:03;20.00;;;13.77;;
69369;SDS011;56530;42.640;23.372;2023-12-22T02:02:29;16.02;;;12.93;;
69369;SDS011;56530;42.640;23.372;2023-12-22T02:04:56;18.17;;;12.63;;
69369;SDS011;56530;42.640;23.372;2023-12-22T02:07:22;16.55;;;13.13;;
69369;SDS011;56530;42.640;23.372;2023-12-22T02:09:47;15.13;;;11.80;;
69369;SDS011;56530;42.640;23.372;2023-12-22T02:12:13;17.43;;;12.53;;
69369;SDS011;56530;42.640;23.372;2023-12-22T02:14:38;16.55;;;12.68;;
69369;SDS011;56530;42.640;23.372;2023-12-22T02:20:02;15.88;;;13.27;;
69369;SDS011;56530;42.640;23.372;2023-12-22T02:22:29;17.23;;;13.02;;
69369;SDS011;56530;42.640;23.372;2023-12-22T02:24:54;17.73;;;12.68;;
69369;SDS011;56530;42.640;23.372;2023-12-22T02:29:49;16.05;;;12.90;;
69369;SDS011;56530;42.640;23.372;2023-12-22T02:32:21;19.67;;;12.35;;
69369;SDS011;56530;42.640;23.372;2023-12-22T02:34:49;16.55;;;12.90;;
69369;SDS011;56530;42.640;23.372;2023-12-22T02:37:16;14.33;;;12.20;;
69369;SDS011;56530;42.640;23.372;2023-12-22T02:39:43;18.63;;;13.63;;
69369;SDS011;56530;42.640;23.372;2023-12-22T02:42:08;17.33;;;12.30;;
69369;SDS011;56530;42.640;23.372;2023-12-22T02:44:34;16.63;;;12.73;;
69369;SDS011;56530;42.640;23.372;2023-12-22T02:46:59;15.90;;;12.87;;
69369;SDS011;56530;42.640;23.372;2023-12-22T02:49:24;18.77;;;12.53;;
69369;SDS011;56530;42.640;23.372;2023-12-22T02:51:50;15.63;;;12.40;;
69369;SDS011;56530;42.640;23.372;2023-12-22T02:54:15;15.65;;;12.48;;
69369;SDS011;56530;42.640;23.372;2023-12-22T02:56:40;14.23;;;11.83;;
69369;SDS011;56530;42.640;23.372;2023-12-22T02:59:08;15.00;;;12.57;;
69369;SDS011;56530;42.640;23.372;2023-12-22T03:01:34;15.43;;;11.73;;
69369;SDS011;56530;42.640;23.372;2023-12-22T03:03:59;15.80;;;12.37;;
69369;SDS011;56530;42.640;23.372;2023-12-22T03:06:25;16.53;;;12.00;;
69369;SDS011;56530;42.640;23.372;2023-12-22T03:08:50;17.40;;;12.60;;
69369;SDS011;56530;42.640;23.372;2023-12-22T03:11:15;13.80;;;11.87;;
69369;SDS011;56530;42.640;23.372;2023-12-22T03:13:41;13.67;;;11.93;;
69369;SDS011;56530;42.640;23.372;2023-12-22T03:16:09;17.83;;;12.80;;
69369;SDS011;56530;42.640;23.372;2023-12-22T03:18:37;13.90;;;12.13;;
69369;SDS011;56530;42.640;23.372;2023-12-22T03:21:03;18.48;;;13.35;;
69369;SDS011;56530;42.640;23.372;2023-12-22T03:23:29;14.17;;;12.47;;
69369;SDS011;56530;42.640;23.372;2023-12-22T03:25:54;16.17;;;13.00;;
69369;SDS011;56530;42.640;23.372;2023-12-22T03:28:19;16.80;;;14.40;;
69369;SDS011;56530;42.640;23.372;2023-12-22T03:30:44;18.37;;;14.90;;
69369;SDS011;56530;42.640;23.372;2023-12-22T03:33:10;20.93;;;16.27;;
69369;SDS011;56530;42.640;23.372;2023-12-22T03:35:35;19.97;;;16.30;;
69369;SDS011;56530;42.640;23.372;2023-12-22T03:38:00;20.60;;;16.43;;
69369;SDS011;56530;42.640;23.372;2023-12-22T03:40:26;20.58;;;17.52;;
69369;SDS011;56530;42.640;23.372;2023-12-22T03:42:51;21.37;;;19.07;;
69369;SDS011;56530;42.640;23.372;2023-12-22T03:45:17;20.27;;;18.13;;
69369;SDS011;56530;42.640;23.372;2023-12-22T03:47:42;20.93;;;18.30;;
69369;SDS011;56530;42.640;23.372;2023-12-22T03:50:07;20.87;;;18.67;;
69369;SDS011;56530;42.640;23.372;2023-12-22T03:52:33;20.52;;;18.38;;
69369;SDS011;56530;42.640;23.372;2023-12-22T03:54:59;20.95;;;17.45;;
69369;SDS011;56530;42.640;23.372;2023-12-22T03:57:24;18.73;;;16.73;;
69369;SDS011;56530;42.640;23.372;2023-12-22T03:59:49;19.27;;;17.17;;
69369;SDS011;56530;42.640;23.372;2023-12-22T04:02:15;19.42;;;17.45;;
69369;SDS011;56530;42.640;23.372;2023-12-22T04:04:40;19.47;;;17.30;;
69369;SDS011;56530;42.640;23.372;2023-12-22T04:07:05;19.57;;;16.47;;
69369;SDS011;56530;42.640;23.372;2023-12-22T04:09:31;20.13;;;15.20;;
69369;SDS011;56530;42.640;23.372;2023-12-22T04:11:56;19.57;;;14.47;;
69369;SDS011;56530;42.640;23.372;2023-12-22T04:14:21;16.30;;;14.02;;
69369;SDS011;56530;42.640;23.372;2023-12-22T04:16:47;18.20;;;13.70;;
69369;SDS011;56530;42.640;23.372;2023-12-22T04:19:12;18.77;;;14.40;;
69369;SDS011;56530;42.640;23.372;2023-12-22T04:21:38;18.50;;;14.00;;
69369;SDS011;56530;42.640;23.372;2023-12-22T04:24:03;17.80;;;14.53;;
69369;SDS011;56530;42.640;23.372;2023-12-22T04:26:29;18.07;;;14.53;;
69369;SDS011;56530;42.640;23.372;2023-12-22T04:28:54;15.73;;;13.48;;
69369;SDS011;56530;42.640;23.372;2023-12-22T04:31:20;17.87;;;13.73;;
69369;SDS011;56530;42.640;23.372;2023-12-22T04:33:45;16.80;;;14.20;;
69369;SDS011;56530;42.640;23.372;2023-12-22T04:36:11;18.23;;;14.63;;
69369;SDS011;56530;42.640;23.372;2023-12-22T04:38:36;18.40;;;14.40;;
69369;SDS011;56530;42.640;23.372;2023-12-22T04:41:01;17.53;;;14.80;;
69369;SDS011;56530;42.640;23.372;2023-12-22T04:43:27;17.88;;;14.85;;
69369;SDS011;56530;42.640;23.372;2023-12-22T04:45:53;18.23;;;14.23;;
69369;SDS011;56530;42.640;23.372;2023-12-22T04:48:18;17.40;;;13.97;;
69369;SDS011;56530;42.640;23.372;2023-12-22T04:50:44;17.67;;;14.37;;
69369;SDS011;56530;42.640;23.372;2023-12-22T04:53:09;16.43;;;14.33;;
69369;SDS011;56530;42.640;23.372;2023-12-22T04:55:35;17.92;;;14.75;;
69369;SDS011;56530;42.640;23.372;2023-12-22T04:58:00;16.07;;;12.80;;
69369;SDS011;56530;42.640;23.372;2023-12-22T05:00:25;16.87;;;13.43;;
69369;SDS011;56530;42.640;23.372;2023-12-22T05:02:51;16.50;;;13.48;;
69369;SDS011;56530;42.640;23.372;2023-12-22T05:05:17;16.80;;;14.38;;
69369;SDS011;56530;42.640;23.372;2023-12-22T05:07:43;15.73;;;13.38;;
69369;SDS011;56530;42.640;23.372;2023-12-22T05:10:08;15.33;;;13.03;;
69369;SDS011;56530;42.640;23.372;2023-12-22T05:12:34;17.90;;;13.67;;
69369;SDS011;56530;42.640;23.372;2023-12-22T05:14:59;32.30;;;28.10;;
69369;SDS011;56530;42.640;23.372;2023-12-22T05:17:25;18.80;;;15.13;;
69369;SDS011;56530;42.640;23.372;2023-12-22T05:19:50;18.57;;;15.23;;
69369;SDS011;56530;42.640;23.372;2023-12-22T05:22:15;17.80;;;14.00;;
69369;SDS011;56530;42.640;23.372;2023-12-22T05:24:41;16.08;;;13.40;;
69369;SDS011;56530;42.640;23.372;2023-12-22T05:27:06;15.63;;;13.47;;
69369;SDS011;56530;42.640;23.372;2023-12-22T05:29:31;15.93;;;13.30;;
69369;SDS011;56530;42.640;23.372;2023-12-22T05:31:57;14.47;;;12.97;;
69369;SDS011;56530;42.640;23.372;2023-12-22T05:34:22;14.07;;;12.03;;
69369;SDS011;56530;42.640;23.372;2023-12-22T05:36:47;15.10;;;13.50;;
69369;SDS011;56530;42.640;23.372;2023-12-22T05:39:13;16.33;;;13.60;;
69369;SDS011;56530;42.640;23.372;2023-12-22T05:41:38;17.00;;;13.43;;
69369;SDS011;56530;42.640;23.372;2023-12-22T05:44:04;15.68;;;13.98;;
69369;SDS011;56530;42.640;23.372;2023-12-22T05:46:30;17.88;;;14.82;;
69369;SDS011;56530;42.640;23.372;2023-12-22T05:49:00;16.65;;;13.82;;
69369;SDS011;56530;42.640;23.372;2023-12-22T05:51:25;15.43;;;13.07;;
69369;SDS011;56530;42.640;23.372;2023-12-22T05:53:51;16.50;;;14.40;;
69369;SDS011;56530;42.640;23.372;2023-12-22T05:56:21;16.75;;;13.88;;
69369;SDS011;56530;42.640;23.372;2023-12-22T05:58:47;16.15;;;13.48;;
69369;SDS011;56530;42.640;23.372;2023-12-22T06:01:17;17.40;;;14.38;;
69369;SDS011;56530;42.640;23.372;2023-12-22T06:03:43;16.83;;;13.45;;
69369;SDS011;56530;42.640;23.372;2023-12-22T06:06:09;16.98;;;15.10;;
69369;SDS011;56530;42.640;23.372;2023-12-22T06:08:34;17.27;;;15.47;;
69369;SDS011;56530;42.640;23.372;2023-12-22T06:11:00;17.90;;;16.07;;
69369;SDS011;56530;42.640;23.372;2023-12-22T06:13:25;19.30;;;16.80;;
69369;SDS011;56530;42.640;23.372;2023-12-22T06:15:50;18.47;;;16.57;;
69369;SDS011;56530;42.640;23.372;2023-12-22T06:18:16;19.27;;;17.17;;
69369;SDS011;56530;42.640;23.372;2023-12-22T06:20:41;19.43;;;17.07;;
69369;SDS011;56530;42.640;23.372;2023-12-22T06:23:06;19.80;;;17.40;;
69369;SDS011;56530;42.640;23.372;2023-12-22T06:25:32;21.07;;;18.87;;
69369;SDS011;56530;42.640;23.372;2023-12-22T06:27:57;19.93;;;17.80;;
69369;SDS011;56530;42.640;23.372;2023-12-22T06:30:22;22.47;;;20.07;;
69369;SDS011;56530;42.640;23.372;2023-12-22T06:32:48;21.93;;;19.40;;
69369;SDS011;56530;42.640;23.372;2023-12-22T06:35:14;21.93;;;19.43;;
69369;SDS011;56530;42.640;23.372;2023-12-22T06:37:39;22.47;;;19.63;;
69369;SDS011;56530;42.640;23.372;2023-12-22T06:40:05;22.00;;;18.97;;
69369;SDS011;56530;42.640;23.372;2023-12-22T06:42:31;20.38;;;18.27;;
69369;SDS011;56530;42.640;23.372;2023-12-22T06:44:56;22.00;;;18.93;;
69369;SDS011;56530;42.640;23.372;2023-12-22T06:47:21;20.40;;;18.23;;
69369;SDS011;56530;42.640;23.372;2023-12-22T06:49:47;19.37;;;17.07;;
69369;SDS011;56530;42.640;23.372;2023-12-22T06:52:12;18.00;;;15.10;;
69369;SDS011;56530;42.640;23.372;2023-12-22T06:54:37;21.40;;;15.35;;
69369;SDS011;56530;42.640;23.372;2023-12-22T06:57:03;20.47;;;15.30;;
69369;SDS011;56530;42.640;23.372;2023-12-22T06:59:28;20.38;;;15.00;;
69369;SDS011;56530;42.640;23.372;2023-12-22T07:01:54;20.27;;;15.50;;
69369;SDS011;56530;42.640;23.372;2023-12-22T07:04:20;20.93;;;16.10;;
69369;SDS011;56530;42.640;23.372;2023-12-22T07:06:46;18.17;;;14.47;;
69369;SDS011;56530;42.640;23.372;2023-12-22T07:11:45;15.75;;;13.30;;
69369;SDS011;56530;42.640;23.372;2023-12-22T07:14:15;17.27;;;14.40;;
69369;SDS011;56530;42.640;23.372;2023-12-22T07:16:40;15.50;;;13.50;;
69369;SDS011;56530;42.640;23.372;2023-12-22T07:19:07;16.70;;;13.60;;
69369;SDS011;56530;42.640;23.372;2023-12-22T07:21:32;18.33;;;14.30;;
69369;SDS011;56530;42.640;23.372;2023-12-22T07:24:00;18.13;;;13.70;;
69369;SDS011;56530;42.640;23.372;2023-12-22T07:26:26;15.30;;;13.65;;
69369;SDS011;56530;42.640;23.372;2023-12-22T07:28:54;15.20;;;13.02;;
69369;SDS011;56530;42.640;23.372;2023-12-22T07:31:19;17.23;;;14.60;;
69369;SDS011;56530;42.640;23.372;2023-12-22T07:33:45;21.77;;;15.60;;
69369;SDS011;56530;42.640;23.372;2023-12-22T07:36:10;17.90;;;14.13;;
69369;SDS011;56530;42.640;23.372;2023-12-22T07:38:36;19.17;;;14.82;;
69369;SDS011;56530;42.640;23.372;2023-12-22T07:41:01;15.67;;;13.40;;
69369;SDS011;56530;42.640;23.372;2023-12-22T07:43:26;17.33;;;14.35;;
69369;SDS011;56530;42.640;23.372;2023-12-22T07:45:54;19.13;;;14.52;;
69369;SDS011;56530;42.640;23.372;2023-12-22T07:48:20;16.98;;;14.20;;
69369;SDS011;56530;42.640;23.372;2023-12-22T07:50:45;17.13;;;13.97;;
69369;SDS011;56530;42.640;23.372;2023-12-22T07:53:11;16.67;;;13.20;;
69369;SDS011;56530;42.640;23.372;2023-12-22T07:55:36;27.73;;;18.90;;
69369;SDS011;56530;42.640;23.372;2023-12-22T07:58:03;31.85;;;22.25;;
69369;SDS011;56530;42.640;23.372;2023-12-22T08:00:29;39.65;;;26.02;;
69369;SDS011;56530;42.640;23.372;2023-12-22T08:02:54;34.50;;;24.47;;
69369;SDS011;56530;42.640;23.372;2023-12-22T08:05:20;28.73;;;21.07;;
69369;SDS011;56530;42.640;23.372;2023-12-22T08:07:45;18.00;;;13.53;;
69369;SDS011;56530;42.640;23.372;2023-12-22T08:10:10;19.30;;;15.05;;
69369;SDS011;56530;42.640;23.372;2023-12-22T08:12:36;19.00;;;16.37;;
69369;SDS011;56530;42.640;23.372;2023-12-22T08:15:02;20.02;;;15.68;;
69369;SDS011;56530;42.640;23.372;2023-12-22T08:17:28;15.82;;;13.07;;
69369;SDS011;56530;42.640;23.372;2023-12-22T08:19:53;18.47;;;12.80;;
69369;SDS011;56530;42.640;23.372;2023-12-22T08:22:19;15.63;;;13.10;;
69369;SDS011;56530;42.640;23.372;2023-12-22T08:24:45;16.52;;;13.30;;
69369;SDS011;56530;42.640;23.372;2023-12-22T08:27:12;20.95;;;14.95;;
69369;SDS011;56530;42.640;23.372;2023-12-22T08:29:37;19.93;;;14.00;;
69369;SDS011;56530;42.640;23.372;2023-12-22T08:32:03;17.50;;;13.30;;
69369;SDS011;56530;42.640;23.372;2023-12-22T08:34:28;19.07;;;13.47;;
69369;SDS011;56530;42.640;23.372;2023-12-22T08:36:54;17.07;;;13.87;;
69369;SDS011;56530;42.640;23.372;2023-12-22T08:39:19;22.73;;;15.63;;
69369;SDS011;56530;42.640;23.372;2023-12-22T08:41:45;17.90;;;14.10;;
69369;SDS011;56530;42.640;23.372;2023-12-22T08:44:11;19.73;;;14.33;;
69369;SDS011;56530;42.640;23.372;2023-12-22T08:46:39;18.15;;;14.13;;
69369;SDS011;56530;42.640;23.372;2023-12-22T08:49:04;19.40;;;14.63;;
69369;SDS011;56530;42.640;23.372;2023-12-22T08:51:29;21.73;;;14.53;;
69369;SDS011;56530;42.640;23.372;2023-12-22T08:53:55;18.75;;;15.02;;
69369;SDS011;56530;42.640;23.372;2023-12-22T08:56:21;17.53;;;14.43;;
69369;SDS011;56530;42.640;23.372;2023-12-22T08:58:47;16.90;;;14.45;;
69369;SDS011;56530;42.640;23.372;2023-12-22T09:01:15;24.65;;;16.08;;
69369;SDS011;56530;42.640;23.372;2023-12-22T09:03:41;44.80;;;27.23;;
69369;SDS011;56530;42.640;23.372;2023-12-22T09:06:10;34.65;;;22.98;;
69369;SDS011;56530;42.640;23.372;2023-12-22T09:08:38;19.17;;;15.70;;
69369;SDS011;56530;42.640;23.372;2023-12-22T09:11:03;21.83;;;16.27;;
69369;SDS011;56530;42.640;23.372;2023-12-22T09:13:29;21.10;;;15.30;;
69369;SDS011;56530;42.640;23.372;2023-12-22T09:15:56;19.33;;;16.13;;
69369;SDS011;56530;42.640;23.372;2023-12-22T09:18:22;19.40;;;17.30;;
69369;SDS011;56530;42.640;23.372;2023-12-22T09:20:48;20.20;;;15.57;;
69369;SDS011;56530;42.640;23.372;2023-12-22T09:23:13;22.00;;;18.07;;
69369;SDS011;56530;42.640;23.372;2023-12-22T09:25:39;22.63;;;16.30;;
69369;SDS011;56530;42.640;23.372;2023-12-22T09:28:04;19.43;;;15.97;;
69369;SDS011;56530;42.640;23.372;2023-12-22T09:30:30;18.50;;;16.47;;
69369;SDS011;56530;42.640;23.372;2023-12-22T09:32:56;17.77;;;15.40;;
69369;SDS011;56530;42.640;23.372;2023-12-22T09:35:22;18.97;;;15.43;;
69369;SDS011;56530;42.640;23.372;2023-12-22T09:37:49;18.48;;;15.52;;
69369;SDS011;56530;42.640;23.372;2023-12-22T09:40:14;21.47;;;15.03;;
69369;SDS011;56530;42.640;23.372;2023-12-22T09:42:40;18.77;;;16.57;;
69369;SDS011;56530;42.640;23.372;2023-12-22T09:45:06;19.50;;;17.40;;
69369;SDS011;56530;42.640;23.372;2023-12-22T09:47:34;19.03;;;17.03;;
69369;SDS011;56530;42.640;23.372;2023-12-22T09:50:00;20.13;;;16.97;;
69369;SDS011;56530;42.640;23.372;2023-12-22T09:52:26;19.10;;;16.93;;
69369;SDS011;56530;42.640;23.372;2023-12-22T09:54:53;21.15;;;17.15;;
69369;SDS011;56530;42.640;23.372;2023-12-22T09:57:19;18.47;;;16.40;;
69369;SDS011;56530;42.640;23.372;2023-12-22T09:59:45;28.03;;;18.10;;
69369;SDS011;56530;42.640;23.372;2023-12-22T10:02:13;22.10;;;17.50;;
69369;SDS011;56530;42.640;23.372;2023-12-22T10:04:38;20.47;;;17.13;;
69369;SDS011;56530;42.640;23.372;2023-12-22T10:07:03;18.57;;;15.67;;
69369;SDS011;56530;42.640;23.372;2023-12-22T10:09:30;17.27;;;15.47;;
69369;SDS011;56530;42.640;23.372;2023-12-22T10:11:56;16.83;;;15.13;;
69369;SDS011;56530;42.640;23.372;2023-12-22T10:14:22;22.13;;;16.70;;
69369;SDS011;56530;42.640;23.372;2023-12-22T10:16:49;22.80;;;18.47;;
69369;SDS011;56530;42.640;23.372;2023-12-22T10:19:15;17.65;;;15.70;;
69369;SDS011;56530;42.640;23.372;2023-12-22T10:21:40;17.53;;;15.67;;
69369;SDS011;56530;42.640;23.372;2023-12-22T10:24:07;23.80;;;16.23;;
69369;SDS011;56530;42.640;23.372;2023-12-22T10:26:32;19.77;;;15.90;;
69369;SDS011;56530;42.640;23.372;2023-12-22T10:28:58;18.90;;;17.00;;
69369;SDS011;56530;42.640;23.372;2023-12-22T10:31:23;17.77;;;15.97;;
69369;SDS011;56530;42.640;23.372;2023-12-22T10:33:48;21.20;;;17.17;;
69369;SDS011;56530;42.640;23.372;2023-12-22T10:36:14;23.13;;;19.37;;
69369;SDS011;56530;42.640;23.372;2023-12-22T10:38:39;23.90;;;19.43;;
69369;SDS011;56530;42.640;23.372;2023-12-22T10:41:05;26.17;;;20.63;;
69369;SDS011;56530;42.640;23.372;2023-12-22T10:43:38;25.17;;;20.03;;
69369;SDS011;56530;42.640;23.372;2023-12-22T10:46:04;23.13;;;20.57;;
69369;SDS011;56530;42.640;23.372;2023-12-22T10:48:30;24.43;;;20.70;;
69369;SDS011;56530;42.640;23.372;2023-12-22T10:50:56;23.70;;;18.87;;
69369;SDS011;56530;42.640;23.372;2023-12-22T10:53:21;26.37;;;20.03;;
69369;SDS011;56530;42.640;23.372;2023-12-22T10:55:48;24.13;;;21.70;;
69369;SDS011;56530;42.640;23.372;2023-12-22T10:58:15;25.20;;;21.47;;
69369;SDS011;56530;42.640;23.372;2023-12-22T11:00:41;21.57;;;19.17;;
69369;SDS011;56530;42.640;23.372;2023-12-22T11:03:10;23.20;;;20.70;;
69369;SDS011;56530;42.640;23.372;2023-12-22T11:05:38;23.57;;;21.27;;
69369;SDS011;56530;42.640;23.372;2023-12-22T11:08:09;22.80;;;20.40;;
69369;SDS011;56530;42.640;23.372;2023-12-22T11:10:36;23.60;;;20.93;;
69369;SDS011;56530;42.640;23.372;2023-12-22T11:13:06;22.33;;;20.03;;
69369;SDS011;56530;42.640;23.372;2023-12-22T11:15:33;23.83;;;20.17;;
69369;SDS011;56530;42.640;23.372;2023-12-22T11:17:59;25.87;;;21.57;;
69369;SDS011;56530;42.640;23.372;2023-12-22T11:20:26;27.75;;;24.15;;
69369;SDS011;56530;42.640;23.372;2023-12-22T11:22:53;30.63;;;25.73;;
69369;SDS011;56530;42.640;23.372;2023-12-22T11:25:20;26.70;;;23.65;;
69369;SDS011;56530;42.640;23.372;2023-12-22T11:27:46;26.63;;;22.60;;
69369;SDS011;56530;42.640;23.372;2023-12-22T11:30:12;25.27;;;22.55;;
69369;SDS011;56530;42.640;23.372;2023-12-22T11:32:38;23.17;;;20.50;;
69369;SDS011;56530;42.640;23.372;2023-12-22T11:35:04;20.63;;;16.70;;
69369;SDS011;56530;42.640;23.372;2023-12-22T11:37:32;19.63;;;15.50;;
69369;SDS011;56530;42.640;23.372;2023-12-22T11:40:03;22.58;;;19.13;;
69369;SDS011;56530;42.640;23.372;2023-12-22T11:42:29;27.10;;;20.15;;
69369;SDS011;56530;42.640;23.372;2023-12-22T11:44:57;20.27;;;17.17;;
69369;SDS011;56530;42.640;23.372;2023-12-22T11:47:23;16.55;;;13.25;;
69369;SDS011;56530;42.640;23.372;2023-12-22T11:49:49;11.63;;;10.25;;
69369;SDS011;56530;42.640;23.372;2023-12-22T11:52:18;11.48;;;9.20;;
69369;SDS011;56530;42.640;23.372;2023-12-22T11:54:48;9.55;;;7.30;;
69369;SDS011;56530;42.640;23.372;2023-12-22T11:59:52;3.38;;;2.75;;
69369;SDS011;56530;42.640;23.372;2023-12-22T12:02:17;2.47;;;2.33;;
69369;SDS011;56530;42.640;23.372;2023-12-22T12:04:42;3.03;;;2.72;;
69369;SDS011;56530;42.640;23.372;2023-12-22T12:10:12;3.40;;;3.10;;
69369;SDS011;56530;42.640;23.372;2023-12-22T12:13:05;2.55;;;2.33;;
69369;SDS011;56530;42.640;23.372;2023-12-22T12:15:30;2.42;;;2.22;;
69369;SDS011;56530;42.640;23.372;2023-12-22T12:17:58;1.80;;;1.70;;
69369;SDS011;56530;42.640;23.372;2023-12-22T12:20:23;1.38;;;1.27;;
69369;SDS011;56530;42.640;23.372;2023-12-22T12:22:49;2.00;;;1.80;;
69369;SDS011;56530;42.640;23.372;2023-12-22T12:25:14;1.65;;;1.48;;
69369;SDS011;56530;42.640;23.372;2023-12-22T12:27:39;1.67;;;1.58;;
69369;SDS011;56530;42.640;23.372;2023-12-22T12:30:13;1.30;;;1.30;;
69369;SDS011;56530;42.640;23.372;2023-12-22T12:32:42;1.30;;;1.20;;
69369;SDS011;56530;42.640;23.372;2023-12-22T12:35:11;1.40;;;1.30;;
69369;SDS011;56530;42.640;23.372;2023-12-22T12:37:37;4.40;;;2.00;;
69369;SDS011;56530;42.640;23.372;2023-12-22T12:40:03;2.42;;;1.98;;
69369;SDS011;56530;42.640;23.372;2023-12-22T12:42:33;1.20;;;1.20;;
69369;SDS011;56530;42.640;23.372;2023-12-22T12:45:02;1.83;;;1.73;;
69369;SDS011;56530;42.640;23.372;2023-12-22T12:47:28;4.38;;;1.77;;
69369;SDS011;56530;42.640;23.372;2023-12-22T12:49:57;1.77;;;1.52;;
69369;SDS011;56530;42.640;23.372;2023-12-22T12:52:26;1.90;;;1.80;;
69369;SDS011;56530;42.640;23.372;2023-12-22T12:54:52;2.47;;;2.28;;
69369;SDS011;56530;42.640;23.372;2023-12-22T12:57:18;1.35;;;1.35;;
69369;SDS011;56530;42.640;23.372;2023-12-22T12:59:47;1.80;;;1.70;;
69369;SDS011;56530;42.640;23.372;2023-12-22T13:02:13;1.92;;;1.83;;
69369;SDS011;56530;42.640;23.372;2023-12-22T13:04:39;3.70;;;2.40;;
69369;SDS011;56530;42.640;23.372;2023-12-22T13:07:04;1.70;;;1.60;;
69369;SDS011;56530;42.640;23.372;2023-12-22T13:09:33;1.70;;;1.60;;
69369;SDS011;56530;42.640;23.372;2023-12-22T13:11:59;2.40;;;2.22;;
69369;SDS011;56530;42.640;23.372;2023-12-22T13:14:24;2.25;;;2.05;;
69369;SDS011;56530;42.640;23.372;2023-12-22T13:16:50;2.63;;;2.42;;
69369;SDS011;56530;42.640;23.372;2023-12-22T13:19:17;3.13;;;2.65;;
69369;SDS011;56530;42.640;23.372;2023-12-22T13:21:43;2.50;;;2.30;;
69369;SDS011;56530;42.640;23.372;2023-12-22T13:24:15;2.92;;;2.30;;
69369;SDS011;56530;42.640;23.372;2023-12-22T13:26:41;2.30;;;2.10;;
69369;SDS011;56530;42.640;23.372;2023-12-22T13:29:07;2.50;;;2.22;;
69369;SDS011;56530;42.640;23.372;2023-12-22T13:31:33;2.90;;;2.03;;
69369;SDS011;56530;42.640;23.372;2023-12-22T13:34:03;3.30;;;2.00;;
69369;SDS011;56530;42.640;23.372;2023-12-22T13:36:33;2.53;;;2.20;;
69369;SDS011;56530;42.640;23.372;2023-12-22T13:39:02;2.37;;;2.17;;
69369;SDS011;56530;42.640;23.372;2023-12-22T13:41:31;2.20;;;2.10;;
69369;SDS011;56530;42.640;23.372;2023-12-22T13:43:57;2.40;;;2.20;;
69369;SDS011;56530;42.640;23.372;2023-12-22T13:46:26;2.00;;;1.90;;
69369;SDS011;56530;42.640;23.372;2023-12-22T13:48:52;4.17;;;2.97;;
69369;SDS011;56530;42.640;23.372;2023-12-22T13:51:18;2.43;;;2.23;;
69369;SDS011;56530;42.640;23.372;2023-12-22T13:53:47;2.50;;;2.30;;
69369;SDS011;56530;42.640;23.372;2023-12-22T13:56:13;2.97;;;2.30;;
69369;SDS011;56530;42.640;23.372;2023-12-22T13:58:46;2.38;;;2.13;;
69369;SDS011;56530;42.640;23.372;2023-12-22T14:01:14;2.10;;;1.90;;
69369;SDS011;56530;42.640;23.372;2023-12-22T14:03:41;2.28;;;1.90;;
69369;SDS011;56530;42.640;23.372;2023-12-22T14:06:12;2.63;;;2.17;;
69369;SDS011;56530;42.640;23.372;2023-12-22T14:08:40;2.15;;;1.95;;
69369;SDS011;56530;42.640;23.372;2023-12-22T14:11:06;2.97;;;2.60;;
69369;SDS011;56530;42.640;23.372;2023-12-22T14:13:33;3.17;;;2.80;;
69369;SDS011;56530;42.640;23.372;2023-12-22T14:15:59;8.93;;;8.02;;
69369;SDS011;56530;42.640;23.372;2023-12-22T14:18:24;3.00;;;2.72;;
69369;SDS011;56530;42.640;23.372;2023-12-22T14:20:50;2.90;;;1.87;;